Time,TemperatureF,DewpointF,PressureIn,WindDirection,WindDirectionDegrees,WindSpeedMPH,WindSpeedGustMPH,Humidity,HourlyPrecipIn,Conditions,Clouds,dailyrainin,SoftwareType,DateUTC
2013-06-27 00:09:00,66.0,65.0,29.75,NW,311,0.0,0.0,95,0.00,,,0.00,weatherlink.com 1.10,2013-06-27 05:09:00,
2013-06-27 00:24:00,66.1,65.0,29.74,NW,311,0.0,0.0,96,0.00,,,0.00,weatherlink.com 1.10,2013-06-27 05:24:00,
2013-06-27 00:39:00,66.0,65.0,29.74,NW,311,0.0,0.0,95,0.00,,,0.00,weatherlink.com 1.10,2013-06-27 05:39:00,
2013-06-27 00:54:00,65.7,65.0,29.75,NW,311,0.0,0.0,96,0.00,,,0.00,weatherlink.com 1.10,2013-06-27 05:54:00,
2013-06-27 01:09:00,65.7,65.0,29.75,NW,311,0.0,0.0,96,0.00,,,0.00,weatherlink.com 1.10,2013-06-27 06:09:00,
2013-06-27 01:24:00,65.5,64.0,29.75,NW,311,0.0,0.0,96,0.00,,,0.00,weatherlink.com 1.10,2013-06-27 06:24:00,
2013-06-27 01:39:00,65.6,65.0,29.75,NW,311,0.0,0.0,97,0.00,,,0.00,weatherlink.com 1.10,2013-06-27 06:39:00,
2013-06-27 01:54:00,66.0,65.0,29.75,NW,311,0.0,0.0,97,0.00,,,0.00,weatherlink.com 1.10,2013-06-27 06:54:00,
2013-06-27 02:09:00,65.9,65.0,29.74,NW,311,0.0,0.0,97,0.00,,,0.00,weatherlink.com 1.10,2013-06-27 07:09:00,
2013-06-27 02:24:00,65.7,65.0,29.74,NW,311,0.0,0.0,97,0.00,,,0.00,weatherlink.com 1.10,2013-06-27 07:24:00,
2013-06-27 02:39:00,65.6,65.0,29.74,NW,311,0.0,0.0,97,0.00,,,0.00,weatherlink.com 1.10,2013-06-27 07:39:00,
2013-06-27 02:54:00,65.5,65.0,29.75,NW,311,0.0,0.0,97,0.00,,,0.00,weatherlink.com 1.10,2013-06-27 07:54:00,
2013-06-27 03:09:00,65.8,65.0,29.74,NW,311,0.0,0.0,97,0.00,,,0.00,weatherlink.com 1.10,2013-06-27 08:09:00,
2013-06-27 03:24:00,65.9,65.0,29.73,NW,311,0.0,1.0,98,0.00,,,0.00,weatherlink.com 1.10,2013-06-27 08:24:00,
2013-06-27 03:39:00,66.2,66.0,29.73,NW,311,0.0,0.0,98,0.00,,,0.00,weatherlink.com 1.10,2013-06-27 08:39:00,
2013-06-27 03:54:00,65.7,65.0,29.74,NW,311,0.0,0.0,97,0.00,,,0.00,weatherlink.com 1.10,2013-06-27 08:54:00,
2013-06-27 04:09:00,65.9,65.0,29.74,NW,311,0.0,0.0,98,0.00,,,0.00,weatherlink.com 1.10,2013-06-27 09:09:00,
2013-06-27 04:24:00,65.4,65.0,29.74,NW,311,0.0,0.0,97,0.00,,,0.00,weatherlink.com 1.10,2013-06-27 09:24:00,
2013-06-27 04:39:00,65.9,65.0,29.74,NW,311,0.0,0.0,98,0.00,,,0.00,weatherlink.com 1.10,2013-06-27 09:39:00,
2013-06-27 04:54:00,66.1,66.0,29.75,NW,311,0.0,0.0,98,0.00,,,0.00,weatherlink.com 1.10,2013-06-27 09:54:00,
2013-06-27 05:09:00,66.5,66.0,29.74,NW,311,0.0,1.0,98,0.00,,,0.00,weatherlink.com 1.10,2013-06-27 10:09:00,
2013-06-27 05:24:00,66.5,66.0,29.75,NW,311,0.0,0.0,98,0.00,,,0.00,weatherlink.com 1.10,2013-06-27 10:24:00,
2013-06-27 05:39:00,66.5,66.0,29.75,NW,311,0.0,0.0,98,0.00,,,0.00,weatherlink.com 1.10,2013-06-27 10:39:00,
2013-06-27 05:54:00,66.6,66.0,29.75,NW,311,0.0,0.0,98,0.00,,,0.00,weatherlink.com 1.10,2013-06-27 10:54:00,
2013-06-27 06:09:00,66.1,66.0,29.76,NW,311,0.0,0.0,98,0.00,,,0.00,weatherlink.com 1.10,2013-06-27 11:09:00,
2013-06-27 06:24:00,65.8,65.0,29.76,NW,311,0.0,0.0,98,0.00,,,0.00,weatherlink.com 1.10,2013-06-27 11:24:00,
2013-06-27 06:39:00,66.1,66.0,29.75,NW,311,0.0,0.0,98,0.00,,,0.00,weatherlink.com 1.10,2013-06-27 11:39:00,
2013-06-27 06:54:00,66.8,66.0,29.75,NW,311,0.0,0.0,98,0.00,,,0.00,weatherlink.com 1.10,2013-06-27 11:54:00,
2013-06-27 07:09:00,68.0,68.0,29.75,NW,311,0.0,1.0,99,0.00,,,0.00,weatherlink.com 1.10,2013-06-27 12:09:00,
2013-06-27 07:24:00,69.2,69.0,29.75,NNW,328,0.0,1.0,99,0.00,,,0.00,weatherlink.com 1.10,2013-06-27 12:24:00,
2013-06-27 07:39:00,70.1,70.0,29.75,NNW,336,0.0,3.0,99,0.00,,,0.00,weatherlink.com 1.10,2013-06-27 12:39:00,
2013-06-27 07:54:00,71.0,70.0,29.75,NW,323,0.0,1.0,98,0.00,,,0.00,weatherlink.com 1.10,2013-06-27 12:54:00,
2013-06-27 08:09:00,71.7,71.0,29.75,NE,47,1.0,4.0,98,0.00,,,0.00,weatherlink.com 1.10,2013-06-27 13:09:00,
2013-06-27 08:24:00,73.1,71.0,29.74,North,355,0.0,3.0,94,0.00,,,0.00,weatherlink.com 1.10,2013-06-27 13:24:00,
2013-06-27 08:39:00,74.2,72.0,29.74,NNW,330,0.0,3.0,91,0.00,,,0.00,weatherlink.com 1.10,2013-06-27 13:39:00,
2013-06-27 08:54:00,75.9,72.0,29.74,North,10,1.0,4.0,88,0.00,,,0.00,weatherlink.com 1.10,2013-06-27 13:54:00,
2013-06-27 09:10:00,76.9,72.0,29.74,NNW,345,1.0,5.0,85,0.00,,,0.00,weatherlink.com 1.10,2013-06-27 14:10:00,
2013-06-27 09:25:00,78.2,72.0,29.74,South,172,0.0,6.0,82,0.00,,,0.00,weatherlink.com 1.10,2013-06-27 14:25:00,
2013-06-27 09:40:00,78.7,73.0,29.74,NNE,24,2.0,6.0,82,0.00,,,0.00,weatherlink.com 1.10,2013-06-27 14:40:00,
2013-06-27 09:55:00,79.1,73.0,29.74,NW,318,0.0,5.0,81,0.00,,,0.00,weatherlink.com 1.10,2013-06-27 14:55:00,
2013-06-27 10:10:00,80.1,73.0,29.74,NNE,29,2.0,5.0,78,0.00,,,0.00,weatherlink.com 1.10,2013-06-27 15:10:00,
2013-06-27 10:25:00,79.5,72.0,29.73,ENE,57,1.0,5.0,77,0.00,,,0.00,weatherlink.com 1.10,2013-06-27 15:25:00,
2013-06-27 10:40:00,79.9,71.0,29.74,North,355,1.0,5.0,75,0.00,,,0.00,weatherlink.com 1.10,2013-06-27 15:40:00,
2013-06-27 10:55:00,80.0,70.0,29.74,North,5,5.0,7.0,71,0.00,,,0.00,weatherlink.com 1.10,2013-06-27 15:55:00,
2013-06-27 11:10:00,80.3,71.0,29.73,North,5,3.0,8.0,72,0.00,,,0.00,weatherlink.com 1.10,2013-06-27 16:10:00,
2013-06-27 11:25:00,80.8,71.0,29.73,NNE,15,1.0,9.0,71,0.00,,,0.00,weatherlink.com 1.10,2013-06-27 16:25:00,
2013-06-27 11:40:00,81.2,70.0,29.73,NW,305,2.0,6.0,69,0.00,,,0.00,weatherlink.com 1.10,2013-06-27 16:40:00,
2013-06-27 11:55:00,81.3,70.0,29.74,NNE,13,3.0,5.0,69,0.00,,,0.00,weatherlink.com 1.10,2013-06-27 16:55:00,
2013-06-27 12:10:00,82.2,71.0,29.74,WNW,289,0.0,4.0,68,0.00,,,0.00,weatherlink.com 1.10,2013-06-27 17:10:00,
2013-06-27 12:25:00,82.1,70.0,29.74,North,5,2.0,5.0,67,0.00,,,0.00,weatherlink.com 1.10,2013-06-27 17:25:00,
2013-06-27 12:40:00,82.9,70.0,29.74,North,9,4.0,8.0,65,0.00,,,0.00,weatherlink.com 1.10,2013-06-27 17:40:00,
2013-06-27 12:55:00,82.5,69.0,29.74,North,5,4.0,5.0,64,0.00,,,0.00,weatherlink.com 1.10,2013-06-27 17:55:00,
2013-06-27 13:10:00,82.8,70.0,29.73,North,360,2.0,4.0,65,0.00,,,0.00,weatherlink.com 1.10,2013-06-27 18:10:00,
2013-06-27 13:25:00,83.8,70.0,29.73,ENE,61,1.0,5.0,63,0.00,,,0.00,weatherlink.com 1.10,2013-06-27 18:25:00,
2013-06-27 13:40:00,84.9,70.0,29.73,SSE,155,1.0,4.0,62,0.00,,,0.00,weatherlink.com 1.10,2013-06-27 18:40:00,
2013-06-27 13:55:00,85.4,69.0,29.72,NNE,32,2.0,4.0,59,0.00,,,0.00,weatherlink.com 1.10,2013-06-27 18:55:00,
2013-06-27 14:10:00,85.5,70.0,29.72,SW,230,0.0,3.0,60,0.00,,,0.00,weatherlink.com 1.10,2013-06-27 19:10:00,
2013-06-27 14:25:00,84.6,70.0,29.71,ESE,107,0.0,3.0,61,0.00,,,0.00,weatherlink.com 1.10,2013-06-27 19:25:00,
2013-06-27 14:40:00,83.2,70.0,29.71,ESE,119,0.0,1.0,64,0.00,,,0.00,weatherlink.com 1.10,2013-06-27 19:40:00,
2013-06-27 14:55:00,76.9,65.0,29.73,NE,34,4.0,13.0,66,0.00,,,0.00,weatherlink.com 1.10,2013-06-27 19:55:00,
2013-06-27 15:10:00,71.2,64.0,29.71,NNW,338,4.0,8.0,78,0.00,,,0.00,weatherlink.com 1.10,2013-06-27 20:10:00,
2013-06-27 15:25:00,69.9,65.0,29.71,NNW,333,0.0,3.0,84,0.00,,,0.00,weatherlink.com 1.10,2013-06-27 20:25:00,
2013-06-27 15:55:00,70.1,66.0,29.71,NNW,333,0.0,1.0,87,0.00,,,0.00,weatherlink.com 1.10,2013-06-27 20:55:00,
2013-06-27 16:10:00,70.6,68.0,29.71,NNW,333,0.0,2.0,90,0.00,,,0.00,weatherlink.com 1.10,2013-06-27 21:10:00,
2013-06-27 16:25:00,71.1,67.0,29.70,NNW,333,0.0,0.0,88,0.00,,,0.00,weatherlink.com 1.10,2013-06-27 21:25:00,
2013-06-27 16:40:00,73.7,69.0,29.69,SSW,198,0.0,3.0,85,0.00,,,0.00,weatherlink.com 1.10,2013-06-27 21:40:00,
2013-06-27 16:55:00,74.5,68.0,29.68,SSW,198,0.0,1.0,81,0.00,,,0.00,weatherlink.com 1.10,2013-06-27 21:55:00,
2013-06-27 17:25:00,75.3,68.0,29.66,SSW,198,0.0,1.0,79,0.00,,,0.00,weatherlink.com 1.10,2013-06-27 22:25:00,
2013-06-27 17:40:00,75.5,69.0,29.66,SSW,198,0.0,1.0,79,0.00,,,0.00,weatherlink.com 1.10,2013-06-27 22:40:00,
2013-06-27 18:10:00,76.7,70.0,29.66,SSW,198,0.0,1.0,79,0.00,,,0.00,weatherlink.com 1.10,2013-06-27 23:10:00,
2013-06-27 18:26:00,76.6,68.0,29.66,SSW,198,0.0,0.0,74,0.00,,,0.00,weatherlink.com 1.10,2013-06-27 23:26:00,
2013-06-27 18:41:00,77.1,69.0,29.66,SSW,198,0.0,0.0,75,0.00,,,0.00,weatherlink.com 1.10,2013-06-27 23:41:00,
2013-06-27 18:56:00,77.5,69.0,29.67,SSW,200,1.0,2.0,75,0.00,,,0.00,weatherlink.com 1.10,2013-06-27 23:56:00,
2013-06-27 19:26:00,77.5,69.0,29.66,North,355,0.0,1.0,76,0.00,,,0.00,weatherlink.com 1.10,2013-06-28 00:26:00,
2013-06-27 19:41:00,76.9,70.0,29.66,North,355,0.0,1.0,78,0.00,,,0.00,weatherlink.com 1.10,2013-06-28 00:41:00,
2013-06-27 20:11:00,76.0,70.0,29.67,North,355,0.0,0.0,81,0.00,,,0.00,weatherlink.com 1.10,2013-06-28 01:11:00,
2013-06-27 20:26:00,75.6,70.0,29.67,North,355,0.0,0.0,82,0.00,,,0.00,weatherlink.com 1.10,2013-06-28 01:26:00,
2013-06-27 20:41:00,74.9,70.0,29.67,North,355,0.0,0.0,84,0.00,,,0.00,weatherlink.com 1.10,2013-06-28 01:41:00,
2013-06-27 20:56:00,74.0,70.0,29.67,North,355,0.0,0.0,86,0.00,,,0.00,weatherlink.com 1.10,2013-06-28 01:56:00,
2013-06-27 21:41:00,72.7,68.0,29.69,North,360,3.0,6.0,85,0.00,,,0.00,weatherlink.com 1.10,2013-06-28 02:41:00,
2013-06-27 21:56:00,71.8,68.0,29.69,NW,323,1.0,4.0,87,0.00,,,0.00,weatherlink.com 1.10,2013-06-28 02:56:00,
2013-06-27 22:11:00,70.6,66.0,29.69,NW,320,0.0,2.0,86,0.00,,,0.00,weatherlink.com 1.10,2013-06-28 03:11:00,
2013-06-27 22:26:00,69.3,65.0,29.68,NW,320,0.0,1.0,85,0.01,,,0.01,weatherlink.com 1.10,2013-06-28 03:26:00,
2013-06-27 22:41:00,68.4,64.0,29.68,NW,320,0.0,0.0,85,0.01,,,0.01,weatherlink.com 1.10,2013-06-28 03:41:00,
2013-06-27 22:56:00,67.5,63.0,29.68,NW,320,0.0,0.0,86,0.01,,,0.01,weatherlink.com 1.10,2013-06-28 03:56:00,
2013-06-27 23:11:00,66.2,63.0,29.69,West,275,3.0,3.0,89,0.01,,,0.01,weatherlink.com 1.10,2013-06-28 04:11:00,
2013-06-27 23:26:00,65.8,63.0,29.69,NNW,340,0.0,2.0,90,0.00,,,0.01,weatherlink.com 1.10,2013-06-28 04:26:00,
2013-06-27 23:41:00,65.6,62.0,29.70,NNW,340,0.0,0.0,89,0.00,,,0.01,weatherlink.com 1.10,2013-06-28 04:41:00,
2013-06-27 23:56:00,65.4,63.0,29.69,NNW,340,0.0,0.0,90,0.00,,,0.01,weatherlink.com 1.10,2013-06-28 04:56:00,